createdAt,value
2023-02-08T07:39:34.931Z,5.47
2023-02-08T07:42:07.212Z,5.43
2023-02-08T07:44:34.330Z,5.10
2023-02-08T07:47:02.053Z,5.03
2023-02-08T07:49:29.289Z,4.20
2023-02-08T07:51:56.359Z,3.70
2023-02-08T07:54:23.542Z,4.15
2023-02-08T07:56:50.580Z,4.22
2023-02-08T07:59:17.735Z,4.10
2023-02-08T08:01:44.887Z,4.00
2023-02-08T08:04:12.707Z,3.50
2023-02-08T08:06:39.783Z,3.70
2023-02-08T08:09:06.985Z,3.90
2023-02-08T08:11:34.076Z,4.15
2023-02-08T08:14:02.653Z,3.80
2023-02-08T08:16:29.750Z,4.25
2023-02-08T08:18:56.868Z,4.50
2023-02-08T08:21:24.102Z,3.50
2023-02-08T08:23:51.125Z,3.20
2023-02-08T08:26:20.732Z,3.85
2023-02-08T08:28:47.941Z,3.03
2023-02-08T08:31:20.071Z,3.15
2023-02-08T08:33:47.425Z,2.75
2023-02-08T08:36:14.448Z,3.50
2023-02-08T08:38:41.790Z,3.20
2023-02-08T08:41:14.714Z,2.33
2023-02-08T08:43:41.824Z,2.60
2023-02-08T08:46:09.530Z,2.78
2023-02-08T08:48:38.964Z,3.05
2023-02-08T08:51:06.871Z,3.00
2023-02-08T08:53:35.692Z,3.22
2023-02-08T08:56:02.712Z,3.38
2023-02-08T08:58:29.813Z,3.00
2023-02-08T09:00:58.833Z,3.43
2023-02-08T09:03:25.907Z,3.38
2023-02-08T09:05:53.096Z,3.30
2023-02-08T09:08:20.162Z,3.08
2023-02-08T09:10:47.178Z,3.23
2023-02-08T09:13:19.424Z,2.92
2023-02-08T09:15:46.819Z,2.90
2023-02-08T09:18:13.865Z,2.80
2023-02-08T09:20:41.679Z,3.28
2023-02-08T09:23:08.920Z,2.80
2023-02-08T09:25:37.438Z,3.30
2023-02-08T09:28:04.994Z,3.33
2023-02-08T09:30:38.401Z,3.40
2023-02-08T09:33:05.427Z,3.30
2023-02-08T09:35:32.394Z,3.40
2023-02-08T09:38:02.316Z,3.80
2023-02-08T09:40:39.273Z,3.72
2023-02-08T09:43:11.640Z,3.78
2023-02-08T09:45:59.265Z,3.80
2023-02-08T09:48:32.805Z,4.03
2023-02-08T09:51:21.793Z,4.20
2023-02-08T09:53:57.003Z,4.20
2023-02-08T09:56:29.491Z,4.07
2023-02-08T09:58:58.149Z,4.50
2023-02-08T10:01:32.669Z,4.22
2023-02-08T10:04:02.004Z,4.13
2023-02-08T10:06:30.364Z,4.18
2023-02-08T10:09:00.140Z,4.07
2023-02-08T10:11:47.467Z,4.03
2023-02-08T10:14:14.539Z,4.10
2023-02-08T10:17:01.060Z,4.63
2023-02-08T10:19:38.029Z,4.47
2023-02-08T10:22:05.436Z,4.13
2023-02-08T10:24:51.559Z,4.03
2023-02-08T10:27:24.678Z,4.40
2023-02-08T10:30:00.860Z,4.65
2023-02-08T10:32:39.973Z,4.53
2023-02-08T10:35:16.920Z,4.35
2023-02-08T10:37:46.198Z,4.75
2023-02-08T10:40:24.163Z,4.35
2023-02-08T10:42:59.256Z,4.70
2023-02-08T10:45:28.603Z,4.75
2023-02-08T10:47:57.366Z,5.05
2023-02-08T10:50:34.862Z,5.33
2023-02-08T10:53:02.015Z,4.93
2023-02-08T10:55:30.761Z,6.00
2023-02-08T10:57:59.441Z,5.53
2023-02-08T11:00:28.252Z,5.80
2023-02-08T11:02:56.395Z,5.53
2023-02-08T11:05:26.546Z,5.70
2023-02-08T11:08:06.184Z,5.30
2023-02-08T11:10:33.591Z,5.28
2023-02-08T11:15:53.026Z,5.47
2023-02-08T11:18:20.101Z,5.45
2023-02-08T11:20:49.276Z,5.43
2023-02-08T11:23:30.270Z,5.68
2023-02-08T11:26:17.691Z,5.07
2023-02-08T11:28:45.019Z,5.20
2023-02-08T11:31:20.077Z,5.37
2023-02-08T11:33:58.794Z,5.10
2023-02-08T11:36:26.041Z,5.20
2023-02-08T11:38:53.263Z,5.43
2023-02-08T11:41:20.845Z,5.10
2023-02-08T11:43:57.816Z,5.10
2023-02-08T11:46:26.660Z,5.70
2023-02-08T11:48:55.253Z,5.15
2023-02-08T11:51:30.482Z,5.03
2023-02-08T11:53:57.898Z,5.43
2023-02-08T11:56:27.548Z,5.40
2023-02-08T11:58:57.562Z,5.30
2023-02-08T12:01:28.874Z,5.57
2023-02-08T12:03:57.718Z,4.93
2023-02-08T12:06:43.748Z,3.97
2023-02-08T12:09:25.557Z,3.50
2023-02-08T12:12:00.958Z,3.28
2023-02-08T12:14:34.133Z,3.10
2023-02-08T12:17:14.765Z,2.40
2023-02-08T12:20:01.000Z,2.47
2023-02-08T12:22:28.833Z,2.40
2023-02-08T12:25:21.248Z,2.90
2023-02-08T12:27:48.422Z,3.20
2023-02-08T12:30:27.780Z,3.20
2023-02-08T12:33:00.394Z,2.95
2023-02-08T12:36:02.767Z,2.90
2023-02-08T12:39:18.540Z,2.90
2023-02-08T12:42:00.262Z,3.20
2023-02-08T12:44:27.277Z,2.22
2023-02-08T12:47:02.185Z,2.10
2023-02-08T12:49:37.265Z,2.10
2023-02-08T12:52:14.619Z,1.80
2023-02-08T12:55:00.654Z,1.55
2023-02-08T12:57:31.446Z,1.67
2023-02-08T13:00:04.226Z,1.60
2023-02-08T13:02:36.346Z,1.70
2023-02-08T13:05:05.579Z,1.77
2023-02-08T13:07:43.766Z,1.80
2023-02-08T13:10:26.549Z,1.88
2023-02-08T13:12:57.087Z,1.83
2023-02-08T13:15:42.372Z,1.67
2023-02-08T13:18:19.210Z,2.00
2023-02-08T13:20:48.474Z,1.70
2023-02-08T13:23:25.536Z,1.85
2023-02-08T13:25:55.266Z,2.03
2023-02-08T13:28:23.687Z,1.95
2023-02-08T13:31:03.705Z,2.05
2023-02-08T13:34:00.929Z,2.10
2023-02-08T13:36:34.358Z,2.03
2023-02-08T13:39:02.349Z,2.30
2023-02-08T13:41:30.392Z,2.20
2023-02-08T13:43:57.436Z,2.03
2023-02-08T13:46:26.384Z,2.22
2023-02-08T13:48:54.947Z,2.10
2023-02-08T13:55:10.997Z,2.10
2023-02-08T13:57:51.079Z,2.17
2023-02-08T14:00:38.497Z,2.47
2023-02-08T14:03:08.626Z,2.30
2023-02-08T14:05:35.852Z,2.22
2023-02-08T14:08:03.783Z,2.33
2023-02-08T14:10:36.820Z,2.20
2023-02-08T14:13:08.364Z,2.80
2023-02-08T14:15:37.724Z,2.70
2023-02-08T14:18:05.340Z,2.60
2023-02-08T14:20:40.096Z,2.50
2023-02-08T14:23:27.486Z,2.58
2023-02-08T14:25:55.974Z,3.08
2023-02-08T14:28:27.834Z,3.10
2023-02-08T14:30:58.096Z,3.53
2023-02-08T14:33:48.212Z,3.53
